sensor_id;sensor_type;location;lat;lon;timestamp;P1;durP1;ratioP1;P2;durP2;ratioP2
11006;SDS011;8186;57.652;11.968;2023-04-29T00:01:54;5.93;;;3.23;;
11006;SDS011;8186;57.652;11.968;2023-04-29T00:04:23;7.10;;;3.53;;
11006;SDS011;8186;57.652;11.968;2023-04-29T00:06:50;5.20;;;2.53;;
11006;SDS011;8186;57.652;11.968;2023-04-29T00:09:18;4.67;;;2.40;;
11006;SDS011;8186;57.652;11.968;2023-04-29T00:11:46;6.27;;;2.53;;
11006;SDS011;8186;57.652;11.968;2023-04-29T00:14:14;4.90;;;2.60;;
11006;SDS011;8186;57.652;11.968;2023-04-29T00:16:41;4.47;;;2.60;;
11006;SDS011;8186;57.652;11.968;2023-04-29T00:19:08;4.13;;;2.47;;
11006;SDS011;8186;57.652;11.968;2023-04-29T00:21:35;4.43;;;2.60;;
11006;SDS011;8186;57.652;11.968;2023-04-29T00:24:02;4.60;;;2.03;;
11006;SDS011;8186;57.652;11.968;2023-04-29T00:26:31;3.57;;;2.13;;
11006;SDS011;8186;57.652;11.968;2023-04-29T00:28:59;4.23;;;2.30;;
11006;SDS011;8186;57.652;11.968;2023-04-29T00:31:26;3.37;;;1.90;;
11006;SDS011;8186;57.652;11.968;2023-04-29T00:33:54;3.83;;;2.27;;
11006;SDS011;8186;57.652;11.968;2023-04-29T00:36:21;5.63;;;2.03;;
11006;SDS011;8186;57.652;11.968;2023-04-29T00:38:48;3.30;;;2.30;;
11006;SDS011;8186;57.652;11.968;2023-04-29T00:41:15;5.27;;;1.97;;
11006;SDS011;8186;57.652;11.968;2023-04-29T00:43:44;4.40;;;2.00;;
11006;SDS011;8186;57.652;11.968;2023-04-29T00:46:11;5.03;;;1.73;;
11006;SDS011;8186;57.652;11.968;2023-04-29T00:48:38;2.40;;;1.87;;
11006;SDS011;8186;57.652;11.968;2023-04-29T00:51:05;4.77;;;2.00;;
11006;SDS011;8186;57.652;11.968;2023-04-29T00:53:33;4.23;;;2.20;;
11006;SDS011;8186;57.652;11.968;2023-04-29T00:56:00;5.03;;;2.03;;
11006;SDS011;8186;57.652;11.968;2023-04-29T00:58:28;4.10;;;2.13;;
11006;SDS011;8186;57.652;11.968;2023-04-29T01:00:59;5.00;;;2.27;;
11006;SDS011;8186;57.652;11.968;2023-04-29T01:03:27;5.43;;;2.40;;
11006;SDS011;8186;57.652;11.968;2023-04-29T01:05:57;6.23;;;2.60;;
11006;SDS011;8186;57.652;11.968;2023-04-29T01:08:33;4.23;;;2.47;;
11006;SDS011;8186;57.652;11.968;2023-04-29T01:11:07;5.63;;;2.10;;
11006;SDS011;8186;57.652;11.968;2023-04-29T01:13:36;4.13;;;2.00;;
11006;SDS011;8186;57.652;11.968;2023-04-29T01:16:10;2.73;;;2.10;;
11006;SDS011;8186;57.652;11.968;2023-04-29T01:18:45;3.93;;;2.47;;
11006;SDS011;8186;57.652;11.968;2023-04-29T01:21:16;3.40;;;2.07;;
11006;SDS011;8186;57.652;11.968;2023-04-29T01:23:45;7.43;;;2.03;;
11006;SDS011;8186;57.652;11.968;2023-04-29T01:26:16;4.30;;;1.97;;
11006;SDS011;8186;57.652;11.968;2023-04-29T01:28:45;3.13;;;1.90;;
11006;SDS011;8186;57.652;11.968;2023-04-29T01:31:17;4.63;;;2.10;;
11006;SDS011;8186;57.652;11.968;2023-04-29T01:33:47;4.67;;;1.83;;
11006;SDS011;8186;57.652;11.968;2023-04-29T01:36:20;3.27;;;2.03;;
11006;SDS011;8186;57.652;11.968;2023-04-29T01:39:05;3.27;;;1.90;;
11006;SDS011;8186;57.652;11.968;2023-04-29T01:41:38;5.30;;;2.17;;
11006;SDS011;8186;57.652;11.968;2023-04-29T01:44:11;3.40;;;2.00;;
11006;SDS011;8186;57.652;11.968;2023-04-29T01:46:42;4.33;;;2.13;;
11006;SDS011;8186;57.652;11.968;2023-04-29T01:49:09;3.10;;;1.80;;
11006;SDS011;8186;57.652;11.968;2023-04-29T01:51:36;2.70;;;1.93;;
11006;SDS011;8186;57.652;11.968;2023-04-29T01:54:05;7.00;;;1.97;;
11006;SDS011;8186;57.652;11.968;2023-04-29T01:56:32;5.47;;;2.10;;
11006;SDS011;8186;57.652;11.968;2023-04-29T01:58:59;5.33;;;2.00;;
11006;SDS011;8186;57.652;11.968;2023-04-29T02:01:26;3.33;;;1.97;;
11006;SDS011;8186;57.652;11.968;2023-04-29T02:03:54;3.23;;;2.00;;
11006;SDS011;8186;57.652;11.968;2023-04-29T02:06:21;3.10;;;1.90;;
11006;SDS011;8186;57.652;11.968;2023-04-29T02:08:48;2.60;;;1.73;;
11006;SDS011;8186;57.652;11.968;2023-04-29T02:11:17;3.37;;;1.80;;
11006;SDS011;8186;57.652;11.968;2023-04-29T02:13:44;4.30;;;2.00;;
11006;SDS011;8186;57.652;11.968;2023-04-29T02:16:12;4.43;;;2.20;;
11006;SDS011;8186;57.652;11.968;2023-04-29T02:18:40;3.90;;;1.80;;
11006;SDS011;8186;57.652;11.968;2023-04-29T02:21:07;3.17;;;1.93;;
11006;SDS011;8186;57.652;11.968;2023-04-29T02:23:34;4.80;;;2.00;;
11006;SDS011;8186;57.652;11.968;2023-04-29T02:26:01;5.10;;;2.50;;
11006;SDS011;8186;57.652;11.968;2023-04-29T02:28:31;5.90;;;1.97;;
11006;SDS011;8186;57.652;11.968;2023-04-29T02:30:58;3.87;;;2.53;;
11006;SDS011;8186;57.652;11.968;2023-04-29T02:33:26;3.20;;;1.70;;
11006;SDS011;8186;57.652;11.968;2023-04-29T02:35:53;2.30;;;1.80;;
11006;SDS011;8186;57.652;11.968;2023-04-29T02:38:20;5.80;;;1.83;;
11006;SDS011;8186;57.652;11.968;2023-04-29T02:40:47;5.00;;;2.00;;
11006;SDS011;8186;57.652;11.968;2023-04-29T02:43:14;4.00;;;2.27;;
11006;SDS011;8186;57.652;11.968;2023-04-29T02:45:43;2.23;;;1.73;;
11006;SDS011;8186;57.652;11.968;2023-04-29T02:48:10;2.90;;;2.10;;
11006;SDS011;8186;57.652;11.968;2023-04-29T02:50:37;3.97;;;1.93;;
11006;SDS011;8186;57.652;11.968;2023-04-29T02:53:04;4.37;;;1.40;;
11006;SDS011;8186;57.652;11.968;2023-04-29T02:55:31;2.10;;;1.70;;
11006;SDS011;8186;57.652;11.968;2023-04-29T02:57:58;3.23;;;1.83;;
11006;SDS011;8186;57.652;11.968;2023-04-29T03:00:25;2.30;;;1.73;;
11006;SDS011;8186;57.652;11.968;2023-04-29T03:02:54;4.37;;;1.73;;
11006;SDS011;8186;57.652;11.968;2023-04-29T03:05:21;4.17;;;1.90;;
11006;SDS011;8186;57.652;11.968;2023-04-29T03:07:48;2.53;;;1.77;;
11006;SDS011;8186;57.652;11.968;2023-04-29T03:10:16;4.57;;;1.80;;
11006;SDS011;8186;57.652;11.968;2023-04-29T03:12:44;2.73;;;1.60;;
11006;SDS011;8186;57.652;11.968;2023-04-29T03:15:11;2.80;;;1.60;;
11006;SDS011;8186;57.652;11.968;2023-04-29T03:17:38;7.20;;;1.87;;
11006;SDS011;8186;57.652;11.968;2023-04-29T03:20:07;3.30;;;1.53;;
11006;SDS011;8186;57.652;11.968;2023-04-29T03:22:36;3.83;;;1.60;;
11006;SDS011;8186;57.652;11.968;2023-04-29T03:25:03;2.70;;;1.80;;
11006;SDS011;8186;57.652;11.968;2023-04-29T03:27:30;3.80;;;1.63;;
11006;SDS011;8186;57.652;11.968;2023-04-29T03:29:57;3.63;;;1.73;;
11006;SDS011;8186;57.652;11.968;2023-04-29T03:32:24;3.93;;;1.47;;
11006;SDS011;8186;57.652;11.968;2023-04-29T03:34:51;5.43;;;1.77;;
11006;SDS011;8186;57.652;11.968;2023-04-29T03:37:20;4.13;;;1.90;;
11006;SDS011;8186;57.652;11.968;2023-04-29T03:39:47;3.87;;;1.90;;
11006;SDS011;8186;57.652;11.968;2023-04-29T03:42:14;2.70;;;1.80;;
11006;SDS011;8186;57.652;11.968;2023-04-29T03:44:41;3.27;;;1.97;;
11006;SDS011;8186;57.652;11.968;2023-04-29T03:47:08;2.87;;;1.80;;
11006;SDS011;8186;57.652;11.968;2023-04-29T03:49:35;3.50;;;1.53;;
11006;SDS011;8186;57.652;11.968;2023-04-29T03:52:02;3.50;;;1.87;;
11006;SDS011;8186;57.652;11.968;2023-04-29T03:54:32;2.80;;;1.83;;
11006;SDS011;8186;57.652;11.968;2023-04-29T03:56:59;5.77;;;2.37;;
11006;SDS011;8186;57.652;11.968;2023-04-29T03:59:27;1.90;;;1.40;;
11006;SDS011;8186;57.652;11.968;2023-04-29T04:01:54;3.07;;;1.93;;
11006;SDS011;8186;57.652;11.968;2023-04-29T04:04:22;2.60;;;1.70;;
11006;SDS011;8186;57.652;11.968;2023-04-29T04:06:50;2.27;;;1.60;;
11006;SDS011;8186;57.652;11.968;2023-04-29T04:09:17;2.13;;;1.60;;
11006;SDS011;8186;57.652;11.968;2023-04-29T04:11:45;3.47;;;1.80;;
11006;SDS011;8186;57.652;11.968;2023-04-29T04:14:13;3.80;;;2.10;;
11006;SDS011;8186;57.652;11.968;2023-04-29T04:16:40;2.90;;;1.77;;
11006;SDS011;8186;57.652;11.968;2023-04-29T04:19:07;3.37;;;1.87;;
11006;SDS011;8186;57.652;11.968;2023-04-29T04:21:34;2.30;;;1.73;;
11006;SDS011;8186;57.652;11.968;2023-04-29T04:24:01;1.77;;;1.57;;
11006;SDS011;8186;57.652;11.968;2023-04-29T04:26:28;2.90;;;1.80;;
11006;SDS011;8186;57.652;11.968;2023-04-29T04:28:57;2.30;;;1.77;;
11006;SDS011;8186;57.652;11.968;2023-04-29T04:31:24;3.70;;;2.00;;
11006;SDS011;8186;57.652;11.968;2023-04-29T04:33:51;3.30;;;1.60;;
11006;SDS011;8186;57.652;11.968;2023-04-29T04:36:18;3.97;;;1.97;;
11006;SDS011;8186;57.652;11.968;2023-04-29T04:38:45;3.90;;;2.10;;
11006;SDS011;8186;57.652;11.968;2023-04-29T04:41:13;4.23;;;2.17;;
11006;SDS011;8186;57.652;11.968;2023-04-29T04:43:40;5.10;;;2.07;;
11006;SDS011;8186;57.652;11.968;2023-04-29T04:46:12;6.23;;;1.87;;
11006;SDS011;8186;57.652;11.968;2023-04-29T04:48:40;4.70;;;1.93;;
11006;SDS011;8186;57.652;11.968;2023-04-29T04:51:07;3.17;;;2.03;;
11006;SDS011;8186;57.652;11.968;2023-04-29T04:53:34;2.47;;;1.90;;
11006;SDS011;8186;57.652;11.968;2023-04-29T04:56:02;4.70;;;2.00;;
11006;SDS011;8186;57.652;11.968;2023-04-29T04:58:29;2.60;;;1.70;;
11006;SDS011;8186;57.652;11.968;2023-04-29T05:00:57;4.57;;;1.87;;
11006;SDS011;8186;57.652;11.968;2023-04-29T05:03:25;3.43;;;1.60;;
11006;SDS011;8186;57.652;11.968;2023-04-29T05:05:52;4.50;;;1.90;;
11006;SDS011;8186;57.652;11.968;2023-04-29T05:08:20;3.83;;;1.57;;
11006;SDS011;8186;57.652;11.968;2023-04-29T05:10:48;3.87;;;2.00;;
11006;SDS011;8186;57.652;11.968;2023-04-29T05:13:15;1.63;;;1.40;;
11006;SDS011;8186;57.652;11.968;2023-04-29T05:15:43;2.90;;;1.87;;
11006;SDS011;8186;57.652;11.968;2023-04-29T05:18:10;2.90;;;1.60;;
11006;SDS011;8186;57.652;11.968;2023-04-29T05:20:38;2.80;;;1.70;;
11006;SDS011;8186;57.652;11.968;2023-04-29T05:23:05;2.10;;;1.60;;
11006;SDS011;8186;57.652;11.968;2023-04-29T05:25:33;4.63;;;1.73;;
11006;SDS011;8186;57.652;11.968;2023-04-29T05:28:00;2.43;;;1.43;;
11006;SDS011;8186;57.652;11.968;2023-04-29T05:30:28;4.13;;;1.80;;
11006;SDS011;8186;57.652;11.968;2023-04-29T05:32:55;1.83;;;1.17;;
11006;SDS011;8186;57.652;11.968;2023-04-29T05:35:22;4.60;;;1.50;;
11006;SDS011;8186;57.652;11.968;2023-04-29T05:37:51;2.80;;;1.60;;
11006;SDS011;8186;57.652;11.968;2023-04-29T05:40:18;4.97;;;1.80;;
11006;SDS011;8186;57.652;11.968;2023-04-29T05:42:47;6.20;;;1.70;;
11006;SDS011;8186;57.652;11.968;2023-04-29T05:45:14;2.27;;;1.40;;
11006;SDS011;8186;57.652;11.968;2023-04-29T05:47:41;3.30;;;1.50;;
11006;SDS011;8186;57.652;11.968;2023-04-29T05:50:09;3.47;;;1.60;;
11006;SDS011;8186;57.652;11.968;2023-04-29T05:52:36;2.63;;;1.50;;
11006;SDS011;8186;57.652;11.968;2023-04-29T05:55:06;2.00;;;1.80;;
11006;SDS011;8186;57.652;11.968;2023-04-29T05:57:33;3.37;;;1.63;;
11006;SDS011;8186;57.652;11.968;2023-04-29T06:00:00;2.50;;;1.43;;
11006;SDS011;8186;57.652;11.968;2023-04-29T06:02:28;2.37;;;1.60;;
11006;SDS011;8186;57.652;11.968;2023-04-29T06:04:55;2.77;;;1.10;;
11006;SDS011;8186;57.652;11.968;2023-04-29T06:07:22;2.73;;;1.73;;
11006;SDS011;8186;57.652;11.968;2023-04-29T06:09:50;3.13;;;1.30;;
11006;SDS011;8186;57.652;11.968;2023-04-29T06:12:20;2.40;;;1.17;;
11006;SDS011;8186;57.652;11.968;2023-04-29T06:14:47;3.97;;;1.70;;
11006;SDS011;8186;57.652;11.968;2023-04-29T06:17:14;3.37;;;1.67;;
11006;SDS011;8186;57.652;11.968;2023-04-29T06:19:41;2.20;;;1.30;;
11006;SDS011;8186;57.652;11.968;2023-04-29T06:22:09;4.53;;;1.70;;
11006;SDS011;8186;57.652;11.968;2023-04-29T06:24:36;4.57;;;1.57;;
11006;SDS011;8186;57.652;11.968;2023-04-29T06:27:03;3.23;;;1.50;;
11006;SDS011;8186;57.652;11.968;2023-04-29T06:29:31;6.33;;;1.90;;
11006;SDS011;8186;57.652;11.968;2023-04-29T06:31:58;7.00;;;2.67;;
11006;SDS011;8186;57.652;11.968;2023-04-29T06:34:26;8.47;;;2.63;;
11006;SDS011;8186;57.652;11.968;2023-04-29T06:36:53;6.23;;;2.30;;
11006;SDS011;8186;57.652;11.968;2023-04-29T06:39:20;5.80;;;2.57;;
11006;SDS011;8186;57.652;11.968;2023-04-29T06:41:47;6.93;;;2.77;;
11006;SDS011;8186;57.652;11.968;2023-04-29T06:44:14;6.53;;;3.30;;
11006;SDS011;8186;57.652;11.968;2023-04-29T06:46:44;7.47;;;3.80;;
11006;SDS011;8186;57.652;11.968;2023-04-29T06:49:12;4.87;;;2.93;;
11006;SDS011;8186;57.652;11.968;2023-04-29T06:51:39;6.00;;;3.00;;
11006;SDS011;8186;57.652;11.968;2023-04-29T06:54:07;5.30;;;3.23;;
11006;SDS011;8186;57.652;11.968;2023-04-29T06:56:34;5.47;;;2.90;;
11006;SDS011;8186;57.652;11.968;2023-04-29T06:59:01;5.57;;;3.33;;
11006;SDS011;8186;57.652;11.968;2023-04-29T07:01:28;5.13;;;3.17;;
11006;SDS011;8186;57.652;11.968;2023-04-29T07:03:57;3.90;;;2.80;;
11006;SDS011;8186;57.652;11.968;2023-04-29T07:06:24;5.67;;;3.53;;
11006;SDS011;8186;57.652;11.968;2023-04-29T07:08:52;7.73;;;3.70;;
11006;SDS011;8186;57.652;11.968;2023-04-29T07:11:19;10.13;;;3.90;;
11006;SDS011;8186;57.652;11.968;2023-04-29T07:13:46;4.97;;;3.70;;
11006;SDS011;8186;57.652;11.968;2023-04-29T07:16:16;8.43;;;4.33;;
11006;SDS011;8186;57.652;11.968;2023-04-29T07:18:45;6.80;;;4.03;;
11006;SDS011;8186;57.652;11.968;2023-04-29T07:21:14;11.00;;;4.20;;
11006;SDS011;8186;57.652;11.968;2023-04-29T07:23:41;7.10;;;4.27;;
11006;SDS011;8186;57.652;11.968;2023-04-29T07:26:09;8.97;;;4.07;;
11006;SDS011;8186;57.652;11.968;2023-04-29T07:28:37;6.17;;;4.30;;
11006;SDS011;8186;57.652;11.968;2023-04-29T07:31:04;6.57;;;4.37;;
11006;SDS011;8186;57.652;11.968;2023-04-29T07:33:32;8.00;;;4.63;;
11006;SDS011;8186;57.652;11.968;2023-04-29T07:35:59;7.73;;;5.80;;
11006;SDS011;8186;57.652;11.968;2023-04-29T07:38:27;8.00;;;5.67;;
11006;SDS011;8186;57.652;11.968;2023-04-29T07:40:55;8.93;;;6.30;;
11006;SDS011;8186;57.652;11.968;2023-04-29T07:43:22;9.57;;;6.60;;
11006;SDS011;8186;57.652;11.968;2023-04-29T07:45:49;11.87;;;7.00;;
11006;SDS011;8186;57.652;11.968;2023-04-29T07:48:16;8.50;;;6.40;;
11006;SDS011;8186;57.652;11.968;2023-04-29T07:50:45;10.30;;;6.03;;
11006;SDS011;8186;57.652;11.968;2023-04-29T07:53:12;8.20;;;6.50;;
11006;SDS011;8186;57.652;11.968;2023-04-29T07:55:41;10.37;;;6.33;;
11006;SDS011;8186;57.652;11.968;2023-04-29T07:58:08;8.70;;;5.53;;
11006;SDS011;8186;57.652;11.968;2023-04-29T08:00:35;10.03;;;5.53;;
11006;SDS011;8186;57.652;11.968;2023-04-29T08:03:02;6.83;;;5.40;;
11006;SDS011;8186;57.652;11.968;2023-04-29T08:05:30;6.67;;;5.60;;
11006;SDS011;8186;57.652;11.968;2023-04-29T08:07:57;7.10;;;5.23;;
11006;SDS011;8186;57.652;11.968;2023-04-29T08:10:25;8.27;;;5.30;;
11006;SDS011;8186;57.652;11.968;2023-04-29T08:12:53;7.60;;;5.60;;
11006;SDS011;8186;57.652;11.968;2023-04-29T08:15:20;10.53;;;5.63;;
11006;SDS011;8186;57.652;11.968;2023-04-29T08:17:48;8.43;;;5.20;;
11006;SDS011;8186;57.652;11.968;2023-04-29T08:20:15;12.00;;;5.43;;
11006;SDS011;8186;57.652;11.968;2023-04-29T08:22:42;6.23;;;5.07;;
11006;SDS011;8186;57.652;11.968;2023-04-29T08:25:09;8.00;;;5.53;;
11006;SDS011;8186;57.652;11.968;2023-04-29T08:27:36;7.27;;;5.60;;
11006;SDS011;8186;57.652;11.968;2023-04-29T08:30:06;4.53;;;4.10;;
11006;SDS011;8186;57.652;11.968;2023-04-29T08:32:34;8.27;;;4.47;;
11006;SDS011;8186;57.652;11.968;2023-04-29T08:35:01;5.13;;;4.17;;
11006;SDS011;8186;57.652;11.968;2023-04-29T08:37:28;5.10;;;3.30;;
11006;SDS011;8186;57.652;11.968;2023-04-29T08:39:55;10.13;;;3.87;;
11006;SDS011;8186;57.652;11.968;2023-04-29T08:42:28;8.67;;;3.53;;
11006;SDS011;8186;57.652;11.968;2023-04-29T08:44:59;8.77;;;3.50;;
11006;SDS011;8186;57.652;11.968;2023-04-29T08:47:28;5.03;;;3.40;;
11006;SDS011;8186;57.652;11.968;2023-04-29T08:49:56;4.33;;;3.60;;
11006;SDS011;8186;57.652;11.968;2023-04-29T08:52:24;5.63;;;3.60;;
11006;SDS011;8186;57.652;11.968;2023-04-29T08:54:51;7.10;;;3.77;;
11006;SDS011;8186;57.652;11.968;2023-04-29T08:57:19;4.53;;;3.40;;
11006;SDS011;8186;57.652;11.968;2023-04-29T08:59:46;4.63;;;3.43;;
11006;SDS011;8186;57.652;11.968;2023-04-29T09:02:14;5.27;;;3.40;;
11006;SDS011;8186;57.652;11.968;2023-04-29T09:04:46;7.33;;;3.77;;
11006;SDS011;8186;57.652;11.968;2023-04-29T09:07:13;7.07;;;3.63;;
11006;SDS011;8186;57.652;11.968;2023-04-29T09:09:41;6.20;;;4.00;;
11006;SDS011;8186;57.652;11.968;2023-04-29T09:12:08;7.17;;;3.77;;
11006;SDS011;8186;57.652;11.968;2023-04-29T09:14:35;5.33;;;3.90;;
11006;SDS011;8186;57.652;11.968;2023-04-29T09:17:02;6.30;;;3.67;;
11006;SDS011;8186;57.652;11.968;2023-04-29T09:19:30;5.77;;;4.10;;
11006;SDS011;8186;57.652;11.968;2023-04-29T09:22:00;4.33;;;3.10;;
11006;SDS011;8186;57.652;11.968;2023-04-29T09:24:27;5.83;;;3.83;;
11006;SDS011;8186;57.652;11.968;2023-04-29T09:26:56;5.63;;;4.03;;
11006;SDS011;8186;57.652;11.968;2023-04-29T09:29:23;10.03;;;3.77;;
11006;SDS011;8186;57.652;11.968;2023-04-29T09:31:50;6.07;;;3.30;;
11006;SDS011;8186;57.652;11.968;2023-04-29T09:34:29;4.10;;;3.17;;
11006;SDS011;8186;57.652;11.968;2023-04-29T09:36:57;10.10;;;3.50;;
11006;SDS011;8186;57.652;11.968;2023-04-29T09:39:25;3.90;;;3.27;;
11006;SDS011;8186;57.652;11.968;2023-04-29T09:41:57;6.33;;;2.83;;
11006;SDS011;8186;57.652;11.968;2023-04-29T09:44:28;4.60;;;2.23;;
11006;SDS011;8186;57.652;11.968;2023-04-29T09:46:56;4.17;;;2.20;;
11006;SDS011;8186;57.652;11.968;2023-04-29T09:49:27;3.03;;;1.90;;
11006;SDS011;8186;57.652;11.968;2023-04-29T09:51:55;4.93;;;2.40;;
11006;SDS011;8186;57.652;11.968;2023-04-29T09:54:28;4.87;;;2.63;;
11006;SDS011;8186;57.652;11.968;2023-04-29T09:56:56;3.77;;;2.20;;
11006;SDS011;8186;57.652;11.968;2023-04-29T09:59:24;6.77;;;2.93;;
11006;SDS011;8186;57.652;11.968;2023-04-29T10:01:52;6.90;;;2.60;;
11006;SDS011;8186;57.652;11.968;2023-04-29T10:04:21;7.00;;;2.97;;
11006;SDS011;8186;57.652;11.968;2023-04-29T10:06:49;4.93;;;2.60;;
11006;SDS011;8186;57.652;11.968;2023-04-29T10:09:17;3.93;;;2.57;;
11006;SDS011;8186;57.652;11.968;2023-04-29T10:11:47;9.50;;;3.20;;
11006;SDS011;8186;57.652;11.968;2023-04-29T10:14:17;6.53;;;2.87;;
11006;SDS011;8186;57.652;11.968;2023-04-29T10:16:45;4.73;;;2.67;;
11006;SDS011;8186;57.652;11.968;2023-04-29T10:19:23;6.13;;;3.43;;
11006;SDS011;8186;57.652;11.968;2023-04-29T10:21:52;6.43;;;3.10;;
11006;SDS011;8186;57.652;11.968;2023-04-29T10:24:20;7.17;;;2.93;;
11006;SDS011;8186;57.652;11.968;2023-04-29T10:26:50;6.83;;;3.03;;
11006;SDS011;8186;57.652;11.968;2023-04-29T10:29:18;3.47;;;2.10;;
11006;SDS011;8186;57.652;11.968;2023-04-29T10:31:45;7.33;;;2.37;;
11006;SDS011;8186;57.652;11.968;2023-04-29T10:34:12;5.97;;;2.23;;
11006;SDS011;8186;57.652;11.968;2023-04-29T10:36:42;4.63;;;2.07;;
11006;SDS011;8186;57.652;11.968;2023-04-29T10:39:12;5.63;;;2.13;;
11006;SDS011;8186;57.652;11.968;2023-04-29T10:41:44;7.57;;;2.80;;
11006;SDS011;8186;57.652;11.968;2023-04-29T10:44:13;6.77;;;2.23;;
11006;SDS011;8186;57.652;11.968;2023-04-29T10:46:41;8.27;;;2.40;;
11006;SDS011;8186;57.652;11.968;2023-04-29T10:49:08;4.63;;;1.87;;
11006;SDS011;8186;57.652;11.968;2023-04-29T10:51:38;8.30;;;2.70;;
11006;SDS011;8186;57.652;11.968;2023-04-29T10:54:07;6.60;;;2.37;;
11006;SDS011;8186;57.652;11.968;2023-04-29T10:56:38;7.23;;;2.30;;
11006;SDS011;8186;57.652;11.968;2023-04-29T10:59:09;4.17;;;1.93;;
11006;SDS011;8186;57.652;11.968;2023-04-29T11:01:46;4.63;;;1.90;;
11006;SDS011;8186;57.652;11.968;2023-04-29T11:04:14;5.97;;;1.47;;
11006;SDS011;8186;57.652;11.968;2023-04-29T11:06:46;4.40;;;1.47;;
11006;SDS011;8186;57.652;11.968;2023-04-29T11:09:14;7.87;;;1.33;;
11006;SDS011;8186;57.652;11.968;2023-04-29T11:11:46;6.07;;;1.50;;
11006;SDS011;8186;57.652;11.968;2023-04-29T11:14:14;9.67;;;1.70;;
11006;SDS011;8186;57.652;11.968;2023-04-29T11:16:51;5.73;;;1.47;;
11006;SDS011;8186;57.652;11.968;2023-04-29T11:19:19;9.43;;;2.13;;
11006;SDS011;8186;57.652;11.968;2023-04-29T11:21:46;12.20;;;1.60;;
11006;SDS011;8186;57.652;11.968;2023-04-29T11:24:13;5.57;;;1.27;;
11006;SDS011;8186;57.652;11.968;2023-04-29T11:26:41;4.80;;;1.40;;
11006;SDS011;8186;57.652;11.968;2023-04-29T11:29:10;3.53;;;1.20;;
11006;SDS011;8186;57.652;11.968;2023-04-29T11:31:37;5.10;;;1.47;;
11006;SDS011;8186;57.652;11.968;2023-04-29T11:34:05;6.77;;;1.30;;
11006;SDS011;8186;57.652;11.968;2023-04-29T11:36:33;6.27;;;1.10;;
11006;SDS011;8186;57.652;11.968;2023-04-29T11:39:00;7.10;;;1.67;;
11006;SDS011;8186;57.652;11.968;2023-04-29T11:41:27;5.63;;;1.30;;
11006;SDS011;8186;57.652;11.968;2023-04-29T11:43:55;4.30;;;1.30;;
11006;SDS011;8186;57.652;11.968;2023-04-29T11:46:24;5.57;;;1.67;;
11006;SDS011;8186;57.652;11.968;2023-04-29T11:48:53;8.67;;;1.30;;
11006;SDS011;8186;57.652;11.968;2023-04-29T11:51:21;3.77;;;1.47;;
11006;SDS011;8186;57.652;11.968;2023-04-29T11:53:48;3.83;;;1.07;;
11006;SDS011;8186;57.652;11.968;2023-04-29T11:56:15;5.80;;;1.43;;
11006;SDS011;8186;57.652;11.968;2023-04-29T11:58:42;7.50;;;1.40;;
11006;SDS011;8186;57.652;11.968;2023-04-29T12:01:09;5.20;;;1.30;;
11006;SDS011;8186;57.652;11.968;2023-04-29T12:03:36;6.23;;;1.47;;
11006;SDS011;8186;57.652;11.968;2023-04-29T12:06:03;5.17;;;1.83;;
11006;SDS011;8186;57.652;11.968;2023-04-29T12:08:32;5.33;;;1.40;;
11006;SDS011;8186;57.652;11.968;2023-04-29T12:10:59;3.87;;;1.10;;
11006;SDS011;8186;57.652;11.968;2023-04-29T12:13:26;4.80;;;1.00;;
11006;SDS011;8186;57.652;11.968;2023-04-29T12:15:54;8.97;;;1.10;;
11006;SDS011;8186;57.652;11.968;2023-04-29T12:18:22;5.53;;;1.03;;
11006;SDS011;8186;57.652;11.968;2023-04-29T12:20:49;4.20;;;1.20;;
11006;SDS011;8186;57.652;11.968;2023-04-29T12:23:18;4.67;;;1.00;;
11006;SDS011;8186;57.652;11.968;2023-04-29T12:25:49;6.60;;;1.73;;
11006;SDS011;8186;57.652;11.968;2023-04-29T12:28:17;4.30;;;1.10;;
11006;SDS011;8186;57.652;11.968;2023-04-29T12:30:45;3.70;;;1.00;;
11006;SDS011;8186;57.652;11.968;2023-04-29T12:33:14;5.23;;;0.87;;
11006;SDS011;8186;57.652;11.968;2023-04-29T12:35:42;4.97;;;1.13;;
11006;SDS011;8186;57.652;11.968;2023-04-29T12:38:09;4.03;;;1.13;;
11006;SDS011;8186;57.652;11.968;2023-04-29T12:40:38;4.07;;;1.00;;
11006;SDS011;8186;57.652;11.968;2023-04-29T12:43:07;5.47;;;1.20;;
11006;SDS011;8186;57.652;11.968;2023-04-29T12:45:35;4.77;;;1.20;;
11006;SDS011;8186;57.652;11.968;2023-04-29T12:48:04;5.23;;;1.10;;
11006;SDS011;8186;57.652;11.968;2023-04-29T12:50:32;7.30;;;1.47;;
11006;SDS011;8186;57.652;11.968;2023-04-29T12:53:00;9.07;;;1.43;;
11006;SDS011;8186;57.652;11.968;2023-04-29T12:55:27;3.47;;;1.37;;
11006;SDS011;8186;57.652;11.968;2023-04-29T12:57:54;7.80;;;1.50;;
11006;SDS011;8186;57.652;11.968;2023-04-29T13:00:23;4.00;;;0.97;;
11006;SDS011;8186;57.652;11.968;2023-04-29T13:02:50;6.20;;;1.40;;
11006;SDS011;8186;57.652;11.968;2023-04-29T13:05:17;3.03;;;1.27;;
11006;SDS011;8186;57.652;11.968;2023-04-29T13:07:44;6.27;;;1.07;;
11006;SDS011;8186;57.652;11.968;2023-04-29T13:10:10;4.63;;;1.37;;
11006;SDS011;8186;57.652;11.968;2023-04-29T13:12:38;4.93;;;1.40;;
11006;SDS011;8186;57.652;11.968;2023-04-29T13:15:05;5.40;;;1.50;;
11006;SDS011;8186;57.652;11.968;2023-04-29T13:17:36;6.93;;;1.50;;
11006;SDS011;8186;57.652;11.968;2023-04-29T13:20:03;4.93;;;1.70;;
11006;SDS011;8186;57.652;11.968;2023-04-29T13:22:31;8.13;;;1.40;;
11006;SDS011;8186;57.652;11.968;2023-04-29T13:24:58;5.70;;;1.30;;
11006;SDS011;8186;57.652;11.968;2023-04-29T13:27:25;3.90;;;1.27;;
11006;SDS011;8186;57.652;11.968;2023-04-29T13:29:52;5.20;;;1.53;;
11006;SDS011;8186;57.652;11.968;2023-04-29T13:32:20;6.43;;;1.50;;
11006;SDS011;8186;57.652;11.968;2023-04-29T13:34:50;3.73;;;1.10;;
11006;SDS011;8186;57.652;11.968;2023-04-29T13:37:17;5.70;;;1.30;;
11006;SDS011;8186;57.652;11.968;2023-04-29T13:39:44;5.20;;;1.50;;
11006;SDS011;8186;57.652;11.968;2023-04-29T13:42:11;7.17;;;1.40;;
11006;SDS011;8186;57.652;11.968;2023-04-29T13:44:38;3.73;;;1.43;;
11006;SDS011;8186;57.652;11.968;2023-04-29T13:47:08;7.77;;;1.40;;
11006;SDS011;8186;57.652;11.968;2023-04-29T13:49:37;8.40;;;1.50;;
11006;SDS011;8186;57.652;11.968;2023-04-29T13:52:06;8.00;;;1.47;;
11006;SDS011;8186;57.652;11.968;2023-04-29T13:54:33;4.93;;;1.77;;
11006;SDS011;8186;57.652;11.968;2023-04-29T13:57:00;8.20;;;1.70;;
11006;SDS011;8186;57.652;11.968;2023-04-29T13:59:29;5.50;;;1.60;;
11006;SDS011;8186;57.652;11.968;2023-04-29T14:01:56;7.95;;;1.80;;
11006;SDS011;8186;57.652;11.968;2023-04-29T14:04:23;7.60;;;1.93;;
11006;SDS011;8186;57.652;11.968;2023-04-29T14:06:50;7.73;;;1.50;;
11006;SDS011;8186;57.652;11.968;2023-04-29T14:09:18;4.10;;;1.80;;
11006;SDS011;8186;57.652;11.968;2023-04-29T14:11:46;7.43;;;1.80;;
11006;SDS011;8186;57.652;11.968;2023-04-29T14:14:13;7.97;;;1.57;;
11006;SDS011;8186;57.652;11.968;2023-04-29T14:16:40;8.23;;;1.83;;
11006;SDS011;8186;57.652;11.968;2023-04-29T14:19:07;9.67;;;1.87;;
11006;SDS011;8186;57.652;11.968;2023-04-29T14:21:35;6.03;;;1.90;;
11006;SDS011;8186;57.652;11.968;2023-04-29T14:24:02;6.27;;;2.00;;
11006;SDS011;8186;57.652;11.968;2023-04-29T14:26:31;8.67;;;1.70;;
11006;SDS011;8186;57.652;11.968;2023-04-29T14:28:58;6.17;;;1.87;;
11006;SDS011;8186;57.652;11.968;2023-04-29T14:31:25;5.93;;;1.60;;
11006;SDS011;8186;57.652;11.968;2023-04-29T14:33:53;5.77;;;1.73;;
11006;SDS011;8186;57.652;11.968;2023-04-29T14:36:20;4.10;;;1.60;;
11006;SDS011;8186;57.652;11.968;2023-04-29T14:38:47;5.63;;;1.60;;
11006;SDS011;8186;57.652;11.968;2023-04-29T14:41:14;6.00;;;1.47;;
11006;SDS011;8186;57.652;11.968;2023-04-29T14:43:42;4.30;;;1.70;;
11006;SDS011;8186;57.652;11.968;2023-04-29T14:46:10;6.13;;;1.87;;
11006;SDS011;8186;57.652;11.968;2023-04-29T14:48:37;3.63;;;1.60;;
11006;SDS011;8186;57.652;11.968;2023-04-29T14:51:04;9.10;;;1.83;;
11006;SDS011;8186;57.652;11.968;2023-04-29T14:53:31;4.10;;;1.73;;